Time;durP1;ratioP1;P1;durP2;ratioP2;P2;SDS_P1;SDS_P2;PMS_P1;PMS_P2;Temp;Humidity;BMP_temperature;BMP_pressure;BME280_temperature;BME280_humidity;BME280_pressure;Samples;Min_cycle;Max_cycle;Signal;HPM_P1;HPM_P2
2021/11/01 00:00:16;;;;;;;0.00;0.00;;;9.80;74.40;;;;;;5053875;28;20025;-75
2021/11/01 00:02:43;;;;;;;0.00;0.00;;;9.80;74.50;;;;;;5054147;28;20091;-75
2021/11/01 00:05:10;;;;;;;0.00;0.00;;;9.80;74.60;;;;;;5054089;28;20040;-74
2021/11/01 00:07:36;;;;;;;0.00;0.00;;;9.80;74.70;;;;;;5054010;28;20082;-75
2021/11/01 00:10:03;;;;;;;0.00;0.00;;;9.70;74.70;;;;;;5053987;28;20024;-75
2021/11/01 00:12:30;;;;;;;0.00;0.00;;;9.70;74.80;;;;;;5069351;28;20396;-74
2021/11/01 00:14:59;;;;;;;0.00;0.00;;;9.70;74.90;;;;;;5054104;28;20044;-75
2021/11/01 00:17:26;;;;;;;0.00;0.00;;;9.60;74.90;;;;;;5053676;28;20028;-74
2021/11/01 00:19:53;;;;;;;0.00;0.00;;;9.60;74.90;;;;;;5053638;28;20025;-75
2021/11/01 00:22:20;;;;;;;0.00;0.00;;;9.60;74.80;;;;;;5054667;28;20033;-75
2021/11/01 00:24:46;;;;;;;0.00;0.00;;;9.50;74.70;;;;;;5054295;28;20041;-75
2021/11/01 00:27:12;;;;;;;0.00;0.00;;;9.50;74.60;;;;;;5052527;28;20037;-75
2021/11/01 00:29:38;;;;;;;0.00;0.00;;;9.50;74.50;;;;;;5053765;28;20036;-74
2021/11/01 00:32:04;;;;;;;0.00;0.00;;;9.50;74.40;;;;;;5069198;28;20033;-74
2021/11/01 00:34:30;;;;;;;0.00;0.00;;;9.50;74.30;;;;;;5053624;28;20063;-75
2021/11/01 00:36:56;;;;;;;0.00;0.00;;;9.50;74.30;;;;;;5052417;28;20021;-75
2021/11/01 00:39:22;;;;;;;0.00;0.00;;;9.50;74.30;;;;;;5053564;28;20028;-74
2021/11/01 00:41:48;;;;;;;0.00;0.00;;;9.40;74.20;;;;;;5053633;28;20029;-73
2021/11/01 00:44:13;;;;;;;0.00;0.00;;;9.40;74.20;;;;;;5053662;28;20039;-73
2021/11/01 00:46:39;;;;;;;0.00;0.00;;;9.40;74.20;;;;;;5052923;28;20033;-73
2021/11/01 00:49:06;;;;;;;0.00;0.00;;;9.40;74.10;;;;;;5052922;28;20449;-74
2021/11/01 00:51:37;;;;;;;0.00;0.00;;;9.40;73.90;;;;;;5052301;28;20029;-74
2021/11/01 00:54:03;;;;;;;0.00;0.00;;;9.30;73.60;;;;;;5053502;28;20037;-73
2021/11/01 00:56:29;;;;;;;0.00;0.00;;;9.30;73.50;;;;;;5053824;28;20463;-74
2021/11/01 00:58:55;;;;;;;0.00;0.00;;;9.30;73.40;;;;;;5055255;28;20032;-73
2021/11/01 01:01:21;;;;;;;0.00;0.00;;;9.30;73.20;;;;;;5058068;28;20037;-73
2021/11/01 01:03:49;;;;;;;0.00;0.00;;;9.30;73.10;;;;;;5058046;28;20098;-73
2021/11/01 01:06:15;;;;;;;0.00;0.00;;;9.30;73.00;;;;;;5056066;28;20021;-74
2021/11/01 01:08:41;;;;;;;0.00;0.00;;;9.30;72.90;;;;;;5057185;28;20025;-74
2021/11/01 01:11:07;;;;;;;0.00;0.00;;;9.30;72.70;;;;;;5057356;28;20458;-74
2021/11/01 01:13:37;;;;;;;0.00;0.00;;;9.20;72.60;;;;;;5057559;28;20044;-74
2021/11/01 01:16:22;;;;;;;0.00;0.00;;;9.20;72.50;;;;;;5057602;28;20099;-75
2021/11/01 01:18:49;;;;;;;0.00;0.00;;;9.20;72.40;;;;;;5057311;28;20017;-74
2021/11/01 01:24:00;;;;;;;0.00;0.00;;;9.20;72.40;;;;;;5057324;28;20611;-75
2021/11/01 01:26:26;;;;;;;0.00;0.00;;;9.20;72.50;;;;;;5057741;28;20025;-75
2021/11/01 01:28:53;;;;;;;0.00;0.00;;;9.20;72.60;;;;;;5056754;28;20078;-75
2021/11/01 01:31:19;;;;;;;0.00;0.00;;;9.20;72.80;;;;;;5072412;28;20111;-75
2021/11/01 01:33:44;;;;;;;0.00;0.00;;;9.20;72.90;;;;;;5056909;28;20116;-74
2021/11/01 01:36:10;;;;;;;0.25;0.00;;;9.20;73.00;;;;;;5056840;28;20354;-75
2021/11/01 01:38:36;;;;;;;0.00;0.00;;;9.20;73.80;;;;;;5072286;28;20029;-74
2021/11/01 01:41:15;;;;;;;0.00;0.00;;;9.20;73.40;;;;;;5056837;28;20025;-75
2021/11/01 01:43:45;;;;;;;0.00;0.00;;;9.20;73.60;;;;;;5056779;28;20094;-74
2021/11/01 01:46:11;;;;;;;0.08;0.00;;;9.20;73.60;;;;;;5057486;28;20029;-74
2021/11/01 01:48:37;;;;;;;0.00;0.00;;;9.20;73.70;;;;;;5055386;28;20028;-74
2021/11/01 01:51:02;;;;;;;0.00;0.00;;;9.20;73.90;;;;;;5056320;28;20028;-74
2021/11/01 01:53:28;;;;;;;0.00;0.00;;;9.20;74.00;;;;;;5056520;28;20036;-74
2021/11/01 01:55:54;;;;;;;0.10;0.00;;;9.20;74.10;;;;;;5054860;28;20025;-75
2021/11/01 01:58:45;;;;;;;0.00;0.00;;;9.30;74.30;;;;;;5056212;28;20488;-74
2021/11/01 02:01:15;;;;;;;0.00;0.00;;;9.30;74.50;;;;;;5056096;28;20037;-75
2021/11/01 02:03:45;;;;;;;0.00;0.00;;;9.30;74.30;;;;;;5071747;28;20025;-74
2021/11/01 02:06:37;;;;;;;0.00;0.00;;;9.30;74.50;;;;;;5056532;28;20075;-75
2021/11/01 02:09:04;;;;;;;0.00;0.00;;;9.40;74.70;;;;;;5056585;28;20025;-75
2021/11/01 02:12:09;;;;;;;0.00;0.00;;;9.40;74.70;;;;;;5055267;28;20029;-74
2021/11/01 02:14:48;;;;;;;0.35;0.00;;;9.40;75.00;;;;;;5049819;28;20045;-76
2021/11/01 02:17:22;;;;;;;0.00;0.00;;;9.50;75.00;;;;;;5056125;28;20028;-75
2021/11/01 02:19:52;;;;;;;0.00;0.00;;;9.50;75.10;;;;;;5071431;28;20079;-75
2021/11/01 02:22:24;;;;;;;0.00;0.00;;;9.50;75.20;;;;;;5055994;28;20040;-75
2021/11/01 02:25:39;;;;;;;0.00;0.00;;;9.50;75.40;;;;;;5055613;28;20489;-75
2021/11/01 02:28:06;;;;;;;0.00;0.00;;;9.50;75.60;;;;;;5053755;28;20029;-75
2021/11/01 02:30:32;;;;;;;0.00;0.00;;;9.50;75.30;;;;;;5055602;28;20515;-75
2021/11/01 02:32:58;;;;;;;0.00;0.00;;;9.50;75.60;;;;;;5056513;28;20029;-75
2021/11/01 02:35:25;;;;;;;0.00;0.00;;;9.50;75.70;;;;;;5054540;28;20116;-75
2021/11/01 02:37:52;;;;;;;0.00;0.00;;;9.50;75.80;;;;;;5055516;28;20108;-75
2021/11/01 02:40:17;;;;;;;0.00;0.00;;;9.50;75.90;;;;;;5055748;28;20025;-75
2021/11/01 02:42:44;;;;;;;0.00;0.00;;;9.50;76.00;;;;;;5055710;28;20383;-74
2021/11/01 02:45:13;;;;;;;0.00;0.00;;;9.50;76.20;;;;;;5055887;28;20029;-75
2021/11/01 02:47:39;;;;;;;0.00;0.00;;;9.50;76.40;;;;;;5055592;28;20017;-75
2021/11/01 02:50:11;;;;;;;0.00;0.00;;;9.50;76.40;;;;;;5054295;28;20419;-75
2021/11/01 02:52:37;;;;;;;0.00;0.00;;;9.50;76.50;;;;;;5071196;28;20036;-74
2021/11/01 02:55:05;;;;;;;0.00;0.00;;;9.50;76.40;;;;;;5055624;28;20037;-75
2021/11/01 02:57:31;;;;;;;0.00;0.00;;;9.50;76.50;;;;;;5054039;28;20033;-75
2021/11/01 02:59:57;;;;;;;0.00;0.00;;;9.50;76.50;;;;;;5070817;28;20032;-75
2021/11/01 03:02:22;;;;;;;0.00;0.00;;;9.50;76.50;;;;;;5054970;28;20025;-75
2021/11/01 03:04:48;;;;;;;0.00;0.00;;;9.50;76.50;;;;;;5055261;28;20036;-75
2021/11/01 03:07:16;;;;;;;0.00;0.00;;;9.50;76.50;;;;;;5055173;28;20032;-75
2021/11/01 03:09:45;;;;;;;0.00;0.00;;;9.50;76.50;;;;;;5070511;28;20029;-74
2021/11/01 03:12:13;;;;;;;0.00;0.00;;;9.50;76.50;;;;;;5055061;28;20025;-74
2021/11/01 03:14:48;;;;;;;0.00;0.00;;;9.50;76.50;;;;;;5054696;28;20069;-74
2021/11/01 03:17:18;;;;;;;0.00;0.00;;;9.50;76.50;;;;;;5053837;28;20071;-75
2021/11/01 03:19:50;;;;;;;0.00;0.00;;;9.50;76.30;;;;;;5054837;28;20033;-74
2021/11/01 03:22:17;;;;;;;0.00;0.00;;;9.40;76.40;;;;;;5054350;28;20036;-74
2021/11/01 03:24:46;;;;;;;0.00;0.00;;;9.40;76.40;;;;;;5055637;28;20125;-75
2021/11/01 03:27:16;;;;;;;0.00;0.00;;;9.40;76.30;;;;;;5052453;28;20049;-74
2021/11/01 03:29:44;;;;;;;0.00;0.00;;;9.40;76.30;;;;;;5054418;28;20536;-74
2021/11/01 03:32:11;;;;;;;0.00;0.00;;;9.40;76.40;;;;;;5054427;28;20033;-74
2021/11/01 03:34:40;;;;;;;0.00;0.00;;;9.40;76.30;;;;;;5054320;28;20040;-74
2021/11/01 03:37:11;;;;;;;0.00;0.00;;;9.40;76.30;;;;;;5054605;28;20162;-74
2021/11/01 03:39:42;;;;;;;0.00;0.00;;;9.40;76.20;;;;;;5054495;28;20029;-74
2021/11/01 03:42:09;;;;;;;0.00;0.00;;;9.40;76.10;;;;;;5055048;28;20037;-74
2021/11/01 03:44:42;;;;;;;0.00;0.00;;;9.40;76.10;;;;;;5055017;28;20360;-74
2021/11/01 03:47:08;;;;;;;0.00;0.00;;;9.30;76.10;;;;;;5054407;28;20039;-74
2021/11/01 03:49:37;;;;;;;0.00;0.00;;;9.40;76.10;;;;;;5053079;28;20461;-74
2021/11/01 03:52:20;;;;;;;0.00;0.00;;;9.40;76.10;;;;;;5054303;28;20032;-75
2021/11/01 03:54:46;;;;;;;0.00;0.00;;;9.30;76.10;;;;;;5053949;28;20037;-74
2021/11/01 03:57:13;;;;;;;0.00;0.00;;;9.30;76.00;;;;;;5054615;28;20028;-74
2021/11/01 03:59:39;;;;;;;0.15;0.00;;;9.30;76.00;;;;;;5069631;28;20541;-74
2021/11/01 04:02:11;;;;;;;0.10;0.00;;;9.30;76.10;;;;;;5053230;28;20029;-74
2021/11/01 04:04:38;;;;;;;0.00;0.00;;;9.30;76.10;;;;;;5069782;28;20059;-74
2021/11/01 04:07:04;;;;;;;0.00;0.00;;;9.30;76.00;;;;;;5054649;28;20036;-74
2021/11/01 04:09:30;;;;;;;0.00;0.00;;;9.30;76.10;;;;;;5054338;28;20036;-74
2021/11/01 04:11:56;;;;;;;0.00;0.00;;;9.20;76.20;;;;;;5054002;28;20063;-74
2021/11/01 04:14:22;;;;;;;0.00;0.00;;;9.20;76.30;;;;;;5053891;28;20037;-74
2021/11/01 04:16:53;;;;;;;0.00;0.00;;;9.20;76.30;;;;;;5054223;28;20021;-74
2021/11/01 04:21:47;;;;;;;0.00;0.00;;;9.20;76.30;;;;;;5053883;28;20036;-74
2021/11/01 04:24:16;;;;;;;0.00;0.00;;;9.20;76.30;;;;;;5053803;28;20128;-74
2021/11/01 04:26:43;;;;;;;0.00;0.00;;;9.20;76.40;;;;;;5053836;28;20025;-73
2021/11/01 04:29:09;;;;;;;0.00;0.00;;;9.30;76.40;;;;;;5053359;28;20043;-75
2021/11/01 04:31:40;;;;;;;0.00;0.00;;;9.20;76.40;;;;;;5053776;28;20039;-75
2021/11/01 04:37:07;;;;;;;0.00;0.00;;;9.20;76.40;;;;;;5041198;28;20457;-73
2021/11/01 04:53:37;;;;;;;0.00;0.00;;;9.20;76.30;;;;;;5053859;28;20543;-75
2021/11/01 04:56:04;;;;;;;0.00;0.00;;;9.20;76.30;;;;;;5052173;28;20044;-74
2021/11/01 04:58:29;;;;;;;0.00;0.00;;;9.20;76.30;;;;;;5053447;28;20032;-75
2021/11/01 05:00:55;;;;;;;0.00;0.00;;;9.20;76.40;;;;;;5069763;28;20361;-74
2021/11/01 05:05:47;;;;;;;0.00;0.00;;;9.20;76.30;;;;;;5053481;28;20498;-75
2021/11/01 05:08:15;;;;;;;0.00;0.00;;;9.20;76.30;;;;;;5053674;28;20438;-75
2021/11/01 05:10:44;;;;;;;0.00;0.00;;;9.20;76.30;;;;;;5053421;28;20017;-74
2021/11/01 05:13:17;;;;;;;0.00;0.00;;;9.20;76.10;;;;;;5052505;28;20039;-74
2021/11/01 05:18:33;;;;;;;0.00;0.00;;;9.30;76.10;;;;;;5053322;28;20060;-76
2021/11/01 05:23:36;;;;;;;0.00;0.00;;;9.40;76.40;;;;;;5048945;28;20049;-75
2021/11/01 05:28:44;;;;;;;0.00;0.00;;;9.40;75.60;;;;;;5033338;28;20370;-73
2021/11/01 05:31:29;;;;;;;0.00;0.00;;;9.50;75.60;;;;;;5033387;28;20029;-74
2021/11/01 05:36:24;;;;;;;0.00;0.00;;;9.60;75.20;;;;;;5033266;28;20421;-75
2021/11/01 05:38:50;;;;;;;0.00;0.00;;;9.80;75.10;;;;;;5049048;28;20033;-74
2021/11/01 05:41:17;;;;;;;0.00;0.00;;;9.80;74.90;;;;;;5032303;28;20029;-74
2021/11/01 05:43:42;;;;;;;0.00;0.00;;;9.90;74.70;;;;;;5033722;28;20401;-74
2021/11/01 05:46:08;;;;;;;0.00;0.00;;;10.00;74.60;;;;;;5035319;28;20083;-75
2021/11/01 05:48:36;;;;;;;0.00;0.00;;;10.10;74.50;;;;;;5036419;28;20029;-75
2021/11/01 05:51:02;;;;;;;0.00;0.00;;;10.20;74.20;;;;;;5036455;28;20017;-75
2021/11/01 05:53:33;;;;;;;0.00;0.00;;;10.30;73.90;;;;;;5036536;28;20041;-74
2021/11/01 05:56:18;;;;;;;0.00;0.00;;;10.30;73.70;;;;;;5036018;28;20486;-75
2021/11/01 05:58:58;;;;;;;0.00;0.00;;;10.30;73.30;;;;;;5036727;28;20533;-75
2021/11/01 06:04:19;;;;;;;0.00;0.00;;;10.40;73.40;;;;;;5036558;28;20037;-74
2021/11/01 06:14:36;;;;;;;0.00;0.00;;;10.80;72.90;;;;;;5036155;28;20048;-75
2021/11/01 06:17:01;;;;;;;0.00;0.00;;;10.90;72.50;;;;;;5035961;28;20120;-75
2021/11/01 06:19:27;;;;;;;0.00;0.00;;;11.00;72.30;;;;;;5036245;28;20108;-75
2021/11/01 06:21:53;;;;;;;0.00;0.00;;;11.10;71.90;;;;;;5035816;28;20030;-75
2021/11/01 06:26:55;;;;;;;0.00;0.00;;;11.20;71.70;;;;;;5056427;28;20364;-74
2021/11/01 06:29:26;;;;;;;0.00;0.00;;;11.20;71.40;;;;;;5055659;28;20035;-74
2021/11/01 06:32:03;;;;;;;0.00;0.00;;;11.30;71.40;;;;;;5056075;28;20044;-74
2021/11/01 06:39:13;;;;;;;0.00;0.00;;;11.30;71.10;;;;;;5056101;28;20065;-74
2021/11/01 06:45:31;;;;;;;0.00;0.00;;;11.30;70.60;;;;;;5055644;28;20391;-74
2021/11/01 06:53:51;;;;;;;0.00;0.00;;;11.30;70.60;;;;;;5055448;28;20122;-74
2021/11/01 07:15:11;;;;;;;0.00;0.00;;;12.20;69.30;;;;;;5054919;28;20055;-76
2021/11/01 08:38:18;;;;;;;0.00;0.00;;;16.40;58.50;;;;;;5053610;28;20370;-75
2021/11/01 09:19:15;;;;;;;0.00;0.00;;;20.20;49.30;;;;;;5031111;28;20018;-75
2021/11/01 09:27:02;;;;;;;0.00;0.00;;;21.20;47.30;;;;;;5057057;28;20083;-75
2021/11/01 09:42:53;;;;;;;0.00;0.00;;;24.10;43.90;;;;;;5056704;28;20028;-75
2021/11/01 09:45:24;;;;;;;0.00;0.00;;;24.80;42.70;;;;;;5057199;28;20033;-74
2021/11/01 09:47:51;;;;;;;0.00;0.00;;;25.10;41.40;;;;;;5056475;28;20025;-75
2021/11/01 09:50:20;;;;;;;0.00;0.00;;;25.40;41.10;;;;;;5056288;28;20112;-75
2021/11/01 09:52:55;;;;;;;0.00;0.00;;;25.50;40.50;;;;;;5056805;28;20024;-75
2021/11/01 10:00:47;;;;;;;0.00;0.00;;;25.80;40.00;;;;;;5056356;28;20479;-75
2021/11/01 10:03:13;;;;;;;0.00;0.00;;;26.30;39.70;;;;;;5054783;28;20025;-74
2021/11/01 10:05:43;;;;;;;0.00;0.00;;;26.80;39.00;;;;;;5055930;28;20057;-75
2021/11/01 10:08:18;;;;;;;0.00;0.00;;;27.30;38.40;;;;;;5054893;28;20115;-75
2021/11/01 10:10:44;;;;;;;0.00;0.00;;;27.80;37.50;;;;;;5055760;28;20040;-74
2021/11/01 10:13:14;;;;;;;0.00;0.00;;;28.30;37.50;;;;;;5054815;28;20033;-75
2021/11/01 10:18:24;;;;;;;0.00;0.00;;;29.10;36.50;;;;;;5056286;28;20036;-74
2021/11/01 10:20:54;;;;;;;0.00;0.00;;;29.50;36.20;;;;;;5055951;28;20033;-75
2021/11/01 10:23:33;;;;;;;0.00;0.00;;;29.40;35.60;;;;;;5055787;28;20056;-74
2021/11/01 10:26:16;;;;;;;0.00;0.00;;;29.40;35.50;;;;;;5056253;28;20458;-76
2021/11/01 10:28:53;;;;;;;0.00;0.00;;;29.70;35.40;;;;;;5056069;28;20381;-76
2021/11/01 10:31:24;;;;;;;0.00;0.00;;;29.90;35.10;;;;;;5055097;28;20091;-74
2021/11/01 10:34:02;;;;;;;0.00;0.00;;;29.60;35.10;;;;;;5055576;28;20037;-74
2021/11/01 10:36:33;;;;;;;0.00;0.00;;;29.40;35.40;;;;;;5055726;28;20119;-79
2021/11/01 10:39:07;;;;;;;0.00;0.00;;;29.30;35.40;;;;;;5055592;28;20025;-74
2021/11/01 11:13:28;;;;;;;0.00;0.00;;;21.80;42.60;;;;;;5055325;28;20031;-75
2021/11/01 11:15:46;;;;;;;;;;;20.80;44.20;;;;;;5053151;28;20203;-75
2021/11/01 11:20:54;;;;;;;0.00;0.00;;;19.20;46.30;;;;;;5054848;28;20461;-76
2021/11/01 11:29:05;;;;;;;0.00;0.00;;;17.90;50.50;;;;;;5054627;28;20469;-75
2021/11/01 11:43:44;;;;;;;0.00;0.00;;;17.30;52.60;;;;;;5053330;28;20029;-74
2021/11/01 11:49:08;;;;;;;0.00;0.00;;;17.10;53.10;;;;;;5053366;28;20044;-74
2021/11/01 11:51:35;;;;;;;0.00;0.00;;;17.10;53.50;;;;;;5054258;28;20036;-75
2021/11/01 11:54:02;;;;;;;0.00;0.00;;;17.10;53.40;;;;;;5054125;28;20037;-74
2021/11/01 11:56:40;;;;;;;0.00;0.00;;;16.90;53.90;;;;;;5052954;28;20461;-74
2021/11/01 11:59:12;;;;;;;0.00;0.00;;;16.70;54.60;;;;;;5053860;28;20025;-75
2021/11/01 12:01:43;;;;;;;0.00;0.00;;;16.60;54.80;;;;;;5054326;28;20059;-75
2021/11/01 12:04:49;;;;;;;0.00;0.00;;;16.60;55.20;;;;;;5054277;28;20480;-75
2021/11/01 12:07:16;;;;;;;0.00;0.00;;;16.90;55.30;;;;;;5047965;28;20033;-75
2021/11/01 12:10:03;;;;;;;0.00;0.00;;;17.30;54.70;;;;;;5053603;28;20067;-75
2021/11/01 12:12:55;;;;;;;0.00;0.00;;;17.70;53.70;;;;;;5069558;28;20034;-75
2021/11/01 12:18:04;;;;;;;0.00;0.00;;;17.30;53.60;;;;;;5053924;28;20035;-74
2021/11/01 12:20:30;;;;;;;0.00;0.00;;;16.90;54.20;;;;;;5053766;28;20028;-75
2021/11/01 12:23:03;;;;;;;0.00;0.00;;;16.90;55.10;;;;;;5069092;28;20511;-75
2021/11/01 12:25:36;;;;;;;0.00;0.00;;;17.20;55.20;;;;;;5053717;28;20072;-76
2021/11/01 12:28:04;;;;;;;0.00;0.00;;;18.20;54.40;;;;;;5069044;28;20408;-75
2021/11/01 12:30:43;;;;;;;0.00;0.00;;;19.30;52.70;;;;;;5053713;28;20047;-75
2021/11/01 12:33:11;;;;;;;0.00;0.00;;;20.20;50.50;;;;;;5052978;28;20029;-76
2021/11/01 12:35:47;;;;;;;0.00;0.00;;;20.90;49.30;;;;;;5053474;28;20037;-75
2021/11/01 12:38:19;;;;;;;0.00;0.00;;;21.60;47.90;;;;;;5053529;28;20025;-75
2021/11/01 12:57:31;;;;;;;0.00;0.00;;;24.90;43.00;;;;;;5057346;28;19912;-74
2021/11/01 12:59:59;;;;;;;0.00;0.00;;;25.10;41.60;;;;;;5073406;28;20116;-75
2021/11/01 13:02:30;;;;;;;0.00;0.00;;;25.00;41.30;;;;;;5057666;28;20021;-75
2021/11/01 13:04:58;;;;;;;0.00;0.00;;;24.90;41.20;;;;;;5057638;28;20452;-74
2021/11/01 13:18:14;;;;;;;0.00;0.00;;;24.50;41.40;;;;;;5057353;28;20377;-75
2021/11/01 13:20:52;;;;;;;0.00;0.00;;;24.50;41.30;;;;;;5073063;28;20120;-75
2021/11/01 13:23:18;;;;;;;0.00;0.00;;;24.40;41.30;;;;;;5057054;28;20025;-75
2021/11/01 13:25:54;;;;;;;0.00;0.00;;;24.20;41.60;;;;;;5056788;28;20040;-76
2021/11/01 13:37:17;;;;;;;0.00;0.00;;;21.40;45.50;;;;;;5057222;28;20067;-76
2021/11/01 13:39:44;;;;;;;0.00;0.00;;;20.40;46.20;;;;;;5055485;28;20059;-75
2021/11/01 13:42:13;;;;;;;0.00;0.00;;;19.70;47.40;;;;;;5056784;28;20029;-75
2021/11/01 13:44:39;;;;;;;0.00;0.00;;;19.00;48.70;;;;;;5056776;28;20029;-75
2021/11/01 13:47:07;;;;;;;0.00;0.00;;;18.40;49.80;;;;;;5057008;28;20055;-75
2021/11/01 13:49:35;;;;;;;0.00;0.00;;;17.80;51.00;;;;;;5056624;28;20078;-74
2021/11/01 13:52:49;;;;;;;0.00;0.00;;;17.40;52.20;;;;;;5056850;28;20052;-74
2021/11/01 13:55:23;;;;;;;0.00;0.00;;;16.80;53.50;;;;;;5055440;28;20041;-77
2021/11/01 13:57:53;;;;;;;0.00;0.00;;;16.40;54.40;;;;;;5055777;28;20373;-76
2021/11/01 14:27:12;;;;;;;0.00;0.00;;;14.10;62.30;;;;;;5056086;28;20023;-75
2021/11/01 14:32:54;;;;;;;0.00;0.00;;;13.80;63.10;;;;;;5055802;28;20385;-76
2021/11/01 16:19:52;;;;;;;0.00;0.00;;;11.90;69.30;;;;;;5054147;28;20461;-76
2021/11/01 16:22:18;;;;;;;0.00;0.00;;;11.90;69.70;;;;;;5053856;28;20025;-76
2021/11/01 16:24:46;;;;;;;0.00;0.00;;;11.90;69.40;;;;;;5054263;28;20053;-75
2021/11/01 16:27:15;;;;;;;0.00;0.00;;;11.90;69.80;;;;;;5053943;28;20334;-76
2021/11/01 16:29:52;;;;;;;0.00;0.00;;;11.90;69.10;;;;;;5053333;28;20105;-75
2021/11/01 16:32:26;;;;;;;0.00;0.00;;;11.90;69.10;;;;;;5053942;28;20067;-76
2021/11/01 16:34:59;;;;;;;0.00;0.00;;;11.90;68.90;;;;;;5053615;28;20040;-79
2021/11/01 16:37:42;;;;;;;0.00;0.00;;;11.90;68.80;;;;;;5054371;28;20064;-75
2021/11/01 16:40:11;;;;;;;0.00;0.00;;;11.90;68.70;;;;;;5053678;28;20079;-75
2021/11/01 16:42:40;;;;;;;0.00;0.00;;;11.90;68.80;;;;;;5053810;28;20115;-76
2021/11/01 16:45:18;;;;;;;0.00;0.00;;;11.90;68.70;;;;;;5069886;28;20028;-76
2021/11/01 16:47:46;;;;;;;0.00;0.00;;;11.90;68.80;;;;;;5053027;28;20120;-76
2021/11/01 16:50:15;;;;;;;0.00;0.00;;;11.90;68.80;;;;;;5053739;28;20043;-76
2021/11/01 16:52:44;;;;;;;0.00;0.00;;;11.90;68.80;;;;;;5069199;28;20037;-75
2021/11/01 16:55:16;;;;;;;0.00;0.00;;;11.80;68.80;;;;;;5052873;28;20095;-76
2021/11/01 16:57:46;;;;;;;0.00;0.00;;;11.70;68.90;;;;;;5053807;28;20029;-74
2021/11/01 17:05:32;;;;;;;0.00;0.00;;;11.70;68.90;;;;;;5054277;28;19905;-74
2021/11/01 18:52:33;;;;;;;0.00;0.00;;;11.90;69.40;;;;;;5055173;28;20043;-77
2021/11/01 18:55:04;;;;;;;0.00;0.00;;;11.90;69.50;;;;;;5055576;28;20032;-76
2021/11/01 18:57:32;;;;;;;0.00;0.00;;;11.90;69.60;;;;;;5055682;28;20052;-76
2021/11/01 19:00:04;;;;;;;0.85;0.00;;;11.80;69.70;;;;;;5055415;28;20029;-76
2021/11/01 19:02:46;;;;;;;0.00;0.00;;;11.80;69.80;;;;;;5055461;28;20172;-75
2021/11/01 20:16:02;;;;;;;0.00;0.00;;;12.60;70.70;;;;;;5054627;28;20144;-74
2021/11/01 21:25:30;;;;;;;0.00;0.00;;;12.70;69.50;;;;;;5057609;28;20095;-75
2021/11/01 21:27:55;;;;;;;0.00;0.00;;;12.70;69.70;;;;;;5057139;28;20389;-74
2021/11/01 21:30:21;;;;;;;0.00;0.00;;;12.70;70.00;;;;;;5056865;28;20033;-76
2021/11/01 21:32:47;;;;;;;0.00;0.00;;;12.60;70.40;;;;;;5057206;28;20112;-76
2021/11/01 21:35:18;;;;;;;0.00;0.00;;;12.60;70.70;;;;;;5072445;28;20040;-76
2021/11/01 21:37:45;;;;;;;0.00;0.00;;;12.60;70.90;;;;;;5057427;28;20029;-75
2021/11/01 21:40:14;;;;;;;0.00;0.00;;;12.60;71.00;;;;;;5057273;28;20024;-74
2021/11/01 21:42:42;;;;;;;0.00;0.00;;;12.50;71.00;;;;;;5055679;28;20032;-75
2021/11/01 21:45:09;;;;;;;0.00;0.00;;;12.50;71.20;;;;;;5056949;28;20029;-75
2021/11/01 21:47:36;;;;;;;0.00;0.00;;;12.40;71.20;;;;;;5057099;28;20411;-74
2021/11/01 21:50:05;;;;;;;0.00;0.00;;;12.30;71.20;;;;;;5056683;28;20033;-74
2021/11/01 21:52:33;;;;;;;0.00;0.00;;;12.30;71.30;;;;;;5056934;28;20108;-75
2021/11/01 21:54:59;;;;;;;0.00;0.00;;;12.20;71.30;;;;;;5072046;28;20040;-75
2021/11/01 21:57:50;;;;;;;0.00;0.00;;;12.20;71.30;;;;;;5056678;28;20025;-75
2021/11/01 22:22:06;;;;;;;;;;;11.90;71.30;;;;;;5056702;28;20477;-75
2021/11/01 22:24:41;;;;;;;0.00;0.00;;;11.90;71.20;;;;;;5056595;28;19924;-75
2021/11/01 22:41:14;;;;;;;0.00;0.00;;;11.70;71.40;;;;;;5055915;28;20044;-73
2021/11/01 22:43:49;;;;;;;0.00;0.00;;;11.70;71.50;;;;;;5054726;28;20044;-75
2021/11/01 22:57:05;;;;;;;0.00;0.00;;;11.80;71.20;;;;;;5055970;28;20040;-74
2021/11/01 22:59:31;;;;;;;0.00;0.00;;;11.80;71.30;;;;;;5055684;28;20032;-74
2021/11/01 23:01:57;;;;;;;0.00;0.00;;;11.70;71.20;;;;;;5055799;28;20404;-73
2021/11/01 23:33:54;;;;;;;0.00;0.00;;;11.80;71.20;;;;;;5054717;28;20078;-74
2021/11/01 23:36:20;;;;;;;0.00;0.00;;;11.80;71.10;;;;;;5054638;28;20037;-76
2021/11/01 23:38:46;;;;;;;0.00;0.00;;;11.80;71.10;;;;;;5054417;28;20036;-74
2021/11/01 23:41:12;;;;;;;0.00;0.00;;;11.90;71.10;;;;;;5054805;28;20032;-74
2021/11/01 23:43:38;;;;;;;0.00;0.00;;;11.80;71.00;;;;;;5054920;28;20035;-75
2021/11/01 23:46:04;;;;;;;0.00;0.00;;;11.90;71.10;;;;;;5053230;28;20071;-75
2021/11/01 23:48:30;;;;;;;0.00;0.00;;;11.80;71.00;;;;;;5054735;28;20072;-74
2021/11/01 23:50:56;;;;;;;0.00;0.00;;;11.90;71.10;;;;;;5054234;28;20123;-73
2021/11/01 23:53:35;;;;;;;0.00;0.00;;;11.90;71.10;;;;;;5069854;28;20044;-75
2021/11/01 23:56:01;;;;;;;0.00;0.00;;;11.90;71.10;;;;;;5054126;28;20029;-75
2021/11/01 23:58:28;;;;;;;0.00;0.00;;;11.90;71.10;;;;;;5054101;28;20029;-74
